createdAt,value
2022-09-16T00:01:01.138Z,18.76
2022-09-16T00:03:30.633Z,18.72
2022-09-16T00:05:58.543Z,18.69
2022-09-16T00:08:26.791Z,18.66
2022-09-16T00:10:55.187Z,18.65
2022-09-16T00:13:23.187Z,18.60
2022-09-16T00:15:51.941Z,18.57
2022-09-16T00:18:21.397Z,18.52
2022-09-16T00:20:54.797Z,18.51
2022-09-16T00:23:23.069Z,18.49
2022-09-16T00:25:52.889Z,18.50
2022-09-16T00:28:21.680Z,18.50
2022-09-16T00:30:50.627Z,18.45
2022-09-16T00:33:19.884Z,18.47
2022-09-16T00:35:52.982Z,18.48
2022-09-16T00:38:32.035Z,18.50
2022-09-16T00:40:59.999Z,18.49
2022-09-16T00:43:28.111Z,18.51
2022-09-16T00:46:00.048Z,18.53
2022-09-16T00:48:30.444Z,18.51
2022-09-16T00:51:02.970Z,18.42
2022-09-16T00:53:35.459Z,18.47
2022-09-16T00:56:10.175Z,18.47
2022-09-16T00:58:43.692Z,18.46
2022-09-16T01:01:11.652Z,18.46
2022-09-16T01:03:46.440Z,18.35
2022-09-16T01:06:17.681Z,18.33
2022-09-16T01:08:46.464Z,18.31
2022-09-16T01:11:14.342Z,18.21
2022-09-16T01:13:44.443Z,18.21
2022-09-16T01:16:20.146Z,18.18
2022-09-16T01:18:55.802Z,18.15
2022-09-16T01:21:38.821Z,18.14
2022-09-16T01:24:35.272Z,18.09
2022-09-16T01:27:25.939Z,18.09
2022-09-16T01:30:35.871Z,18.03
2022-09-16T01:33:08.684Z,17.96
2022-09-16T01:35:54.133Z,17.95
2022-09-16T01:38:39.134Z,17.87
2022-09-16T01:41:15.521Z,17.88
2022-09-16T01:43:51.754Z,17.87
2022-09-16T01:46:23.924Z,17.79
2022-09-16T01:48:58.830Z,17.76
2022-09-16T01:51:31.781Z,17.72
2022-09-16T01:54:06.975Z,17.70
2022-09-16T01:56:42.697Z,17.64
2022-09-16T01:59:19.993Z,17.62
2022-09-16T02:01:55.563Z,17.60
2022-09-16T02:04:30.886Z,17.56
2022-09-16T02:07:06.751Z,17.53
2022-09-16T02:09:40.407Z,17.51
2022-09-16T02:12:15.067Z,17.48
2022-09-16T02:14:47.027Z,17.41
2022-09-16T02:17:18.198Z,17.41
2022-09-16T02:19:57.167Z,17.36
2022-09-16T02:22:30.374Z,17.30
2022-09-16T02:25:04.108Z,17.28
2022-09-16T02:27:33.424Z,17.22
2022-09-16T02:30:07.928Z,17.20
2022-09-16T02:32:43.659Z,17.19
2022-09-16T02:35:20.262Z,17.16
2022-09-16T02:37:53.030Z,17.17
2022-09-16T02:40:26.273Z,17.17
2022-09-16T02:42:54.366Z,17.11
2022-09-16T02:45:27.297Z,17.09
2022-09-16T02:48:03.188Z,17.08
2022-09-16T02:50:41.044Z,17.02
2022-09-16T02:53:18.002Z,16.98
2022-09-16T02:55:54.205Z,16.90
2022-09-16T02:58:25.164Z,16.86
2022-09-16T03:00:58.430Z,16.79
2022-09-16T03:03:26.976Z,16.77
2022-09-16T03:06:17.304Z,16.76
2022-09-16T03:08:46.497Z,16.70
2022-09-16T03:11:29.894Z,16.72
2022-09-16T03:14:13.153Z,16.66
2022-09-16T03:16:54.073Z,16.69
2022-09-16T03:19:27.627Z,16.66
2022-09-16T03:22:04.315Z,16.61
2022-09-16T03:24:43.914Z,16.58
2022-09-16T03:27:20.656Z,16.59
2022-09-16T03:29:56.976Z,16.56
2022-09-16T03:32:29.472Z,16.55
2022-09-16T03:35:02.238Z,16.60
2022-09-16T03:37:37.172Z,16.54
2022-09-16T03:40:10.152Z,16.52
2022-09-16T03:42:40.692Z,16.53
2022-09-16T03:45:12.482Z,16.51
2022-09-16T03:47:41.019Z,16.50
2022-09-16T03:50:09.760Z,16.53
2022-09-16T03:52:39.392Z,16.50
2022-09-16T03:55:08.284Z,16.46
2022-09-16T03:57:36.341Z,16.44
2022-09-16T04:00:05.025Z,16.39
2022-09-16T04:02:40.061Z,16.41
2022-09-16T04:05:09.870Z,16.42
2022-09-16T04:07:39.131Z,16.44
2022-09-16T04:10:08.405Z,16.42
2022-09-16T04:12:36.765Z,16.42
2022-09-16T04:15:05.624Z,16.39
2022-09-16T04:17:34.114Z,16.42
2022-09-16T04:20:02.826Z,16.41
2022-09-16T04:22:31.717Z,16.38
2022-09-16T04:25:01.049Z,16.36
2022-09-16T04:27:29.224Z,16.30
2022-09-16T04:29:57.422Z,16.29
2022-09-16T04:32:27.622Z,16.31
2022-09-16T04:34:56.325Z,16.30
2022-09-16T04:37:24.243Z,16.24
2022-09-16T04:39:53.368Z,16.29
2022-09-16T04:42:23.125Z,16.26
2022-09-16T04:44:50.965Z,16.25
2022-09-16T04:47:18.874Z,16.26
2022-09-16T04:49:47.225Z,16.27
2022-09-16T04:52:15.397Z,16.28
2022-09-16T04:54:44.878Z,16.23
2022-09-16T04:57:13.061Z,16.26
2022-09-16T04:59:42.284Z,16.29
2022-09-16T05:02:10.259Z,16.28
2022-09-16T05:04:38.437Z,16.32
2022-09-16T05:07:09.316Z,16.26
2022-09-16T05:09:37.589Z,16.30
2022-09-16T05:12:06.911Z,16.29
2022-09-16T05:14:35.081Z,16.32
2022-09-16T05:17:04.499Z,16.34
2022-09-16T05:19:32.806Z,16.38
2022-09-16T05:22:00.827Z,16.42
2022-09-16T05:24:28.800Z,16.48
2022-09-16T05:26:57.296Z,16.52
2022-09-16T05:29:25.419Z,16.55
2022-09-16T05:31:53.355Z,16.61
2022-09-16T05:34:28.492Z,16.57
2022-09-16T05:36:57.202Z,16.53
2022-09-16T05:39:33.771Z,16.58
2022-09-16T05:42:04.787Z,16.63
2022-09-16T05:44:33.183Z,16.64
2022-09-16T05:47:01.100Z,16.55
2022-09-16T05:49:30.280Z,16.64
2022-09-16T05:51:58.409Z,16.64
2022-09-16T05:54:26.222Z,16.68
2022-09-16T05:56:54.154Z,16.72
2022-09-16T05:59:23.812Z,16.72
2022-09-16T06:01:51.743Z,16.81
2022-09-16T06:04:19.988Z,16.92
2022-09-16T06:06:49.706Z,17.02
2022-09-16T06:09:21.913Z,17.10
2022-09-16T06:12:00.992Z,17.24
2022-09-16T06:14:30.317Z,17.42
2022-09-16T06:17:00.771Z,17.54
2022-09-16T06:19:28.710Z,17.74
2022-09-16T06:21:58.500Z,17.86
2022-09-16T06:24:26.967Z,18.00
2022-09-16T06:26:54.883Z,18.08
2022-09-16T06:29:22.967Z,18.21
2022-09-16T06:31:51.289Z,18.29
2022-09-16T06:34:20.987Z,18.41
2022-09-16T06:36:48.993Z,18.45
2022-09-16T06:39:24.003Z,18.66
2022-09-16T06:41:51.925Z,18.67
2022-09-16T06:44:26.777Z,18.82
2022-09-16T06:47:01.457Z,18.75
2022-09-16T06:49:47.107Z,18.79
2022-09-16T06:52:19.204Z,18.91
2022-09-16T06:54:48.527Z,18.89
2022-09-16T06:57:18.193Z,18.99
2022-09-16T06:59:46.199Z,19.02
2022-09-16T07:02:14.174Z,19.02
2022-09-16T07:04:44.803Z,18.95
2022-09-16T07:07:12.924Z,18.82
2022-09-16T07:09:42.802Z,18.91
2022-09-16T07:12:16.245Z,18.91
2022-09-16T07:14:46.735Z,19.03
2022-09-16T07:17:14.971Z,19.20
2022-09-16T07:19:42.934Z,19.36
2022-09-16T07:22:11.458Z,19.44
2022-09-16T07:24:39.713Z,19.62
2022-09-16T07:27:26.125Z,19.71
2022-09-16T07:30:03.608Z,19.64
2022-09-16T07:32:34.909Z,19.71
2022-09-16T07:35:04.625Z,19.99
2022-09-16T07:37:32.762Z,20.10
2022-09-16T07:40:00.702Z,20.30
2022-09-16T07:42:31.457Z,20.47
2022-09-16T07:44:59.370Z,20.67
2022-09-16T07:47:30.404Z,20.71
2022-09-16T07:49:59.708Z,20.70
2022-09-16T07:52:29.737Z,20.75
2022-09-16T07:54:57.704Z,20.93
2022-09-16T07:57:26.148Z,21.05
2022-09-16T07:59:55.701Z,21.18
2022-09-16T08:02:23.644Z,21.07
2022-09-16T08:04:51.906Z,21.35
2022-09-16T08:07:19.683Z,21.70
2022-09-16T08:09:50.855Z,21.97
2022-09-16T08:12:19.818Z,22.23
2022-09-16T08:14:47.858Z,22.44
2022-09-16T08:17:17.238Z,22.44
2022-09-16T08:19:45.411Z,21.91
2022-09-16T08:22:13.257Z,21.89
2022-09-16T08:24:41.188Z,22.04
2022-09-16T08:27:09.367Z,21.99
2022-09-16T08:29:37.597Z,21.91
2022-09-16T08:32:05.775Z,21.72
2022-09-16T08:34:35.518Z,21.58
2022-09-16T08:37:03.388Z,21.67
2022-09-16T08:39:31.235Z,21.49
2022-09-16T08:42:20.905Z,21.75
2022-09-16T08:45:00.393Z,21.90
2022-09-16T08:47:43.078Z,22.14
2022-09-16T08:50:18.244Z,22.42
2022-09-16T08:52:48.048Z,22.47
2022-09-16T08:55:19.995Z,22.40
2022-09-16T08:57:57.405Z,22.27
2022-09-16T09:00:25.262Z,22.31
2022-09-16T09:02:57.153Z,21.98
2022-09-16T09:05:34.686Z,21.81
2022-09-16T09:08:13.924Z,21.29
2022-09-16T09:10:47.583Z,20.86
2022-09-16T09:13:38.364Z,20.51
2022-09-16T09:16:15.794Z,19.91
2022-09-16T09:18:53.839Z,19.56
2022-09-16T09:21:31.571Z,19.50
2022-09-16T09:24:24.381Z,19.38
2022-09-16T09:26:57.919Z,18.96
2022-09-16T09:29:39.849Z,18.91
2022-09-16T09:32:21.205Z,19.15
2022-09-16T09:35:02.324Z,19.37
2022-09-16T09:37:42.440Z,19.64
2022-09-16T09:40:14.789Z,19.50
2022-09-16T09:42:51.014Z,19.40
2022-09-16T09:45:24.615Z,19.32
2022-09-16T09:47:58.596Z,19.50
2022-09-16T09:50:30.912Z,20.01
2022-09-16T09:53:13.004Z,20.04
2022-09-16T09:55:42.896Z,20.15
2022-09-16T09:58:20.486Z,20.31
2022-09-16T10:00:49.180Z,20.66
2022-09-16T10:03:20.655Z,20.88
2022-09-16T10:05:49.380Z,21.07
2022-09-16T10:08:28.057Z,21.22
2022-09-16T10:10:59.628Z,21.70
2022-09-16T10:13:29.947Z,21.99
2022-09-16T10:16:10.640Z,22.07
2022-09-16T10:18:39.117Z,22.54
2022-09-16T10:21:10.583Z,22.58
2022-09-16T10:23:40.271Z,22.64
2022-09-16T10:26:19.600Z,22.62
2022-09-16T10:29:00.371Z,22.42
2022-09-16T10:31:36.015Z,22.36
2022-09-16T10:34:06.553Z,22.16
2022-09-16T10:36:36.754Z,22.03
2022-09-16T10:39:06.423Z,21.66
2022-09-16T10:41:41.766Z,21.39
2022-09-16T10:44:17.705Z,20.70
2022-09-16T10:46:55.008Z,20.53
2022-09-16T10:49:29.326Z,20.42
2022-09-16T10:52:09.120Z,20.37
2022-09-16T10:54:38.309Z,20.52
2022-09-16T10:57:23.128Z,20.77
2022-09-16T11:00:08.778Z,21.11
2022-09-16T11:02:58.015Z,21.34
2022-09-16T11:05:33.103Z,21.37
2022-09-16T11:08:13.116Z,21.35
2022-09-16T11:10:49.659Z,21.31
2022-09-16T11:13:39.065Z,21.25
2022-09-16T11:16:18.733Z,21.16
2022-09-16T11:19:02.743Z,20.74
2022-09-16T11:21:41.967Z,20.65
2022-09-16T11:24:23.042Z,20.66
2022-09-16T11:27:00.504Z,20.45
2022-09-16T11:29:48.402Z,20.48
2022-09-16T11:32:26.741Z,20.57
2022-09-16T11:35:23.826Z,20.77
2022-09-16T11:37:59.876Z,20.76
2022-09-16T11:40:35.274Z,20.82
2022-09-16T11:43:26.076Z,20.79
2022-09-16T11:46:03.240Z,20.66
2022-09-16T11:48:42.376Z,20.61
2022-09-16T11:51:27.029Z,20.42
2022-09-16T11:54:15.470Z,20.36
2022-09-16T11:56:47.721Z,20.41
2022-09-16T11:59:30.175Z,20.48
2022-09-16T12:02:03.301Z,20.61
2022-09-16T12:04:38.302Z,20.95
2022-09-16T12:07:14.022Z,21.24
2022-09-16T12:09:49.282Z,21.44
2022-09-16T12:12:21.107Z,21.57
2022-09-16T12:14:56.007Z,21.76
2022-09-16T12:17:27.942Z,21.95
2022-09-16T12:20:01.405Z,21.94
2022-09-16T12:22:33.053Z,22.13
2022-09-16T12:25:08.046Z,22.34
2022-09-16T12:27:44.264Z,22.39
2022-09-16T12:30:19.273Z,22.58
2022-09-16T12:32:56.386Z,22.86
2022-09-16T12:35:29.372Z,23.12
2022-09-16T12:37:57.867Z,23.60
2022-09-16T12:40:28.465Z,23.82
2022-09-16T12:43:17.142Z,23.97
2022-09-16T12:46:12.650Z,23.66
2022-09-16T12:48:54.223Z,24.17
2022-09-16T12:51:50.507Z,24.40
2022-09-16T12:55:11.346Z,24.69
2022-09-16T12:57:52.572Z,24.76
2022-09-16T13:00:22.189Z,24.68
2022-09-16T13:02:55.728Z,24.29
2022-09-16T13:05:30.972Z,23.97
2022-09-16T13:08:05.830Z,23.75
2022-09-16T13:13:34.142Z,22.89
2022-09-16T13:16:10.422Z,22.70
2022-09-16T13:18:45.041Z,22.48
2022-09-16T13:21:24.235Z,22.31
2022-09-16T13:24:00.567Z,22.16
2022-09-16T13:26:39.853Z,22.19
2022-09-16T13:29:39.471Z,22.36
2022-09-16T13:32:26.926Z,22.72
2022-09-16T13:35:04.639Z,23.07
2022-09-16T13:37:32.585Z,23.34
2022-09-16T13:40:17.084Z,23.60
2022-09-16T13:42:45.140Z,23.77
2022-09-16T13:45:48.143Z,24.16
2022-09-16T13:48:19.463Z,24.29
2022-09-16T13:50:52.862Z,24.43
2022-09-16T13:53:36.539Z,24.48
2022-09-16T13:56:17.805Z,24.50
2022-09-16T13:58:55.063Z,24.40
2022-09-16T14:01:37.000Z,24.28
2022-09-16T14:04:28.700Z,24.26
2022-09-16T14:07:15.199Z,24.05
2022-09-16T14:09:55.114Z,24.04
2022-09-16T14:12:36.234Z,24.01
2022-09-16T14:15:06.379Z,24.07
2022-09-16T14:17:40.784Z,24.32
2022-09-16T14:20:17.313Z,24.28
2022-09-16T14:22:46.588Z,23.95
2022-09-16T14:25:35.600Z,23.71
2022-09-16T14:28:17.086Z,23.71
2022-09-16T14:30:51.198Z,23.90
2022-09-16T14:33:24.250Z,24.30
2022-09-16T14:35:54.585Z,24.56
2022-09-16T14:41:27.676Z,24.70
2022-09-16T14:43:57.831Z,24.53
2022-09-16T14:46:27.065Z,24.74
2022-09-16T14:48:55.192Z,24.79
2022-09-16T14:51:27.286Z,24.54
2022-09-16T14:54:12.362Z,24.60
2022-09-16T14:56:41.107Z,24.52
2022-09-16T14:59:12.599Z,24.55
2022-09-16T15:01:41.890Z,24.56
2022-09-16T15:04:19.070Z,24.53
2022-09-16T15:06:52.705Z,24.12
2022-09-16T15:09:29.369Z,23.91
2022-09-16T15:12:00.763Z,23.53
2022-09-16T15:14:29.198Z,23.67
2022-09-16T15:17:00.444Z,23.69
2022-09-16T15:19:36.645Z,23.72
2022-09-16T15:22:07.207Z,23.89
2022-09-16T15:24:41.574Z,24.08
2022-09-16T15:27:10.455Z,24.33
2022-09-16T15:29:50.521Z,24.25
2022-09-16T15:32:20.962Z,24.18
2022-09-16T15:34:49.561Z,23.80
2022-09-16T15:37:34.462Z,23.70
2022-09-16T15:40:19.685Z,23.71
2022-09-16T15:42:48.289Z,23.80
2022-09-16T15:45:19.900Z,23.85
2022-09-16T15:47:57.813Z,23.98
2022-09-16T15:50:28.958Z,23.94
2022-09-16T15:53:01.741Z,23.70
2022-09-16T15:55:36.330Z,23.49
2022-09-16T15:58:11.828Z,23.00
2022-09-16T16:01:03.623Z,22.68
2022-09-16T16:03:38.728Z,22.51
2022-09-16T16:06:07.114Z,22.27
2022-09-16T16:08:42.231Z,22.09
2022-09-16T16:11:13.972Z,21.81
2022-09-16T16:13:42.543Z,21.70
2022-09-16T16:16:12.838Z,21.58
2022-09-16T16:18:41.968Z,21.56
2022-09-16T16:21:16.068Z,21.38
2022-09-16T16:23:44.769Z,21.21
2022-09-16T16:26:14.511Z,21.19
2022-09-16T16:28:42.728Z,21.12
2022-09-16T16:31:15.541Z,20.87
2022-09-16T16:33:45.197Z,20.75
2022-09-16T16:36:14.881Z,20.74
2022-09-16T16:38:43.591Z,20.61
2022-09-16T16:41:15.656Z,20.64
2022-09-16T16:43:47.080Z,20.46
2022-09-16T16:46:20.385Z,20.50
2022-09-16T16:48:48.346Z,20.43
2022-09-16T16:51:16.406Z,20.50
2022-09-16T16:53:48.397Z,20.44
2022-09-16T16:56:16.582Z,20.38
2022-09-16T16:58:45.755Z,20.28
2022-09-16T17:01:16.245Z,20.20
2022-09-16T17:03:46.356Z,20.15
2022-09-16T17:06:14.732Z,20.03
2022-09-16T17:08:42.690Z,19.89
2022-09-16T17:11:12.850Z,19.84
2022-09-16T17:13:42.653Z,19.76
2022-09-16T17:16:14.190Z,19.70
2022-09-16T17:18:42.947Z,19.59
2022-09-16T17:21:14.644Z,19.47
2022-09-16T17:23:42.831Z,19.37
2022-09-16T17:26:11.240Z,19.33
2022-09-16T17:28:44.465Z,19.08
2022-09-16T17:31:16.481Z,19.21
2022-09-16T17:33:45.082Z,19.08
2022-09-16T17:36:14.595Z,19.20
2022-09-16T17:38:42.806Z,19.06
2022-09-16T17:41:13.573Z,19.06
2022-09-16T17:43:42.683Z,18.94
2022-09-16T17:46:16.049Z,18.94
2022-09-16T17:48:44.634Z,18.88
2022-09-16T17:51:13.563Z,18.98
2022-09-16T17:53:41.816Z,18.88
2022-09-16T17:56:11.864Z,18.93
2022-09-16T17:58:42.857Z,18.86
2022-09-16T18:01:13.090Z,18.79
2022-09-16T18:03:44.732Z,18.82
2022-09-16T18:06:14.611Z,18.75
2022-09-16T18:08:43.537Z,18.68
2022-09-16T18:11:12.848Z,18.61
2022-09-16T18:13:41.777Z,18.57
2022-09-16T18:16:13.603Z,18.49
2022-09-16T18:18:44.001Z,18.44
2022-09-16T18:21:15.258Z,18.39
2022-09-16T18:23:43.506Z,18.29
2022-09-16T18:26:14.611Z,18.36
2022-09-16T18:29:07.877Z,18.33
2022-09-16T18:31:34.812Z,18.43
2022-09-16T18:34:04.596Z,18.48
2022-09-16T18:36:46.190Z,18.49
2022-09-16T18:39:18.262Z,18.42
2022-09-16T18:41:46.633Z,18.44
2022-09-16T18:44:17.275Z,18.33
2022-09-16T18:46:57.855Z,18.34
2022-09-16T18:49:30.105Z,18.30
2022-09-16T18:51:58.015Z,18.27
2022-09-16T18:54:29.004Z,18.17
2022-09-16T18:56:59.046Z,18.15
2022-09-16T18:59:29.371Z,18.20
2022-09-16T19:01:59.425Z,18.16
2022-09-16T19:04:30.866Z,18.17
2022-09-16T19:07:06.167Z,18.16
2022-09-16T19:09:36.039Z,18.23
2022-09-16T19:12:04.843Z,18.23
2022-09-16T19:14:32.770Z,18.23
2022-09-16T19:17:01.039Z,18.18
2022-09-16T19:19:30.448Z,18.11
2022-09-16T19:21:58.740Z,18.07
2022-09-16T19:24:27.738Z,18.04
2022-09-16T19:26:56.538Z,18.00
2022-09-16T19:29:24.812Z,17.93
2022-09-16T19:31:53.674Z,17.88
2022-09-16T19:34:22.625Z,17.83
2022-09-16T19:36:51.903Z,17.81
2022-09-16T19:39:21.229Z,17.77
2022-09-16T19:41:49.606Z,17.72
2022-09-16T19:44:18.595Z,17.75
2022-09-16T19:46:49.410Z,17.71
2022-09-16T19:49:19.889Z,17.69
2022-09-16T19:51:49.082Z,17.62
2022-09-16T19:54:19.005Z,17.54
2022-09-16T19:56:50.657Z,17.49
2022-09-16T19:59:20.111Z,17.49
2022-09-16T20:01:49.033Z,17.45
2022-09-16T20:04:19.800Z,17.48
2022-09-16T20:06:48.807Z,17.48
2022-09-16T20:09:19.748Z,17.49
2022-09-16T20:11:48.916Z,17.45
2022-09-16T20:14:19.682Z,17.49
2022-09-16T20:16:48.872Z,17.46
2022-09-16T20:19:19.219Z,17.36
2022-09-16T20:21:47.417Z,17.44
2022-09-16T20:24:19.100Z,17.42
2022-09-16T20:26:48.056Z,17.55
2022-09-16T20:29:17.261Z,17.55
2022-09-16T20:31:46.794Z,17.66
2022-09-16T20:34:16.239Z,17.73
2022-09-16T20:36:45.842Z,17.57
2022-09-16T20:39:14.582Z,17.76
2022-09-16T20:41:49.977Z,17.65
2022-09-16T20:44:18.290Z,17.75
2022-09-16T20:46:48.137Z,17.82
2022-09-16T20:49:20.118Z,17.78
2022-09-16T20:51:48.266Z,17.83
2022-09-16T20:54:16.672Z,17.88
2022-09-16T20:56:47.826Z,17.67
2022-09-16T20:59:17.496Z,17.77
2022-09-16T21:01:45.674Z,17.75
2022-09-16T21:04:16.798Z,17.71
2022-09-16T21:06:49.713Z,17.73
2022-09-16T21:09:20.140Z,17.77
2022-09-16T21:11:49.783Z,17.59
2022-09-16T21:14:21.445Z,17.67
2022-09-16T21:16:50.146Z,17.60
2022-09-16T21:19:18.049Z,17.58
2022-09-16T21:21:47.600Z,17.69
2022-09-16T21:24:16.480Z,17.64
2022-09-16T21:26:45.985Z,17.64
2022-09-16T21:29:18.358Z,17.61
2022-09-16T21:31:46.669Z,17.62
2022-09-16T21:34:16.844Z,17.70
2022-09-16T21:36:45.262Z,17.70
2022-09-16T21:39:14.529Z,17.72
2022-09-16T21:41:43.033Z,17.77
2022-09-16T21:44:11.883Z,17.81
2022-09-16T21:46:45.400Z,17.79
2022-09-16T21:49:19.194Z,17.77
2022-09-16T21:51:47.499Z,17.77
2022-09-16T21:54:19.936Z,17.85
2022-09-16T21:56:50.144Z,17.87
2022-09-16T21:59:19.774Z,17.83
2022-09-16T22:01:51.102Z,17.86
2022-09-16T22:04:21.604Z,17.94
2022-09-16T22:06:50.456Z,17.88
2022-09-16T22:09:18.799Z,17.84
2022-09-16T22:11:47.084Z,17.93
2022-09-16T22:14:16.126Z,17.94
2022-09-16T22:16:44.739Z,17.88
2022-09-16T22:19:16.182Z,17.99
2022-09-16T22:21:46.354Z,17.98
2022-09-16T22:24:16.184Z,17.96
2022-09-16T22:26:44.461Z,17.87
2022-09-16T22:29:13.596Z,17.97
2022-09-16T22:31:42.906Z,18.01
2022-09-16T22:34:21.269Z,18.01
2022-09-16T22:36:49.554Z,18.01
2022-09-16T22:39:19.778Z,17.96
2022-09-16T22:41:48.469Z,17.96
2022-09-16T22:44:16.593Z,17.87
2022-09-16T22:46:47.027Z,17.85
2022-09-16T22:49:15.739Z,17.86
2022-09-16T22:51:46.101Z,17.91
2022-09-16T22:54:15.810Z,17.88
2022-09-16T22:56:45.225Z,17.92
2022-09-16T22:59:18.443Z,17.87
2022-09-16T23:01:47.448Z,17.92
2022-09-16T23:04:15.945Z,17.92
2022-09-16T23:06:45.212Z,17.91
2022-09-16T23:09:14.500Z,17.96
2022-09-16T23:11:42.618Z,17.94
2022-09-16T23:14:14.371Z,17.94
2022-09-16T23:16:43.035Z,17.97
2022-09-16T23:19:12.622Z,17.90
2022-09-16T23:21:41.441Z,17.86
2022-09-16T23:24:16.904Z,17.87
2022-09-16T23:26:53.968Z,17.83
2022-09-16T23:29:24.496Z,17.76
2022-09-16T23:31:52.577Z,17.75
2022-09-16T23:34:21.857Z,17.76
2022-09-16T23:36:50.507Z,17.72
2022-09-16T23:39:20.449Z,17.77
2022-09-16T23:41:50.454Z,17.63
2022-09-16T23:44:19.274Z,17.67
2022-09-16T23:46:47.144Z,17.62
2022-09-16T23:49:16.927Z,17.56
2022-09-16T23:51:45.151Z,17.59
2022-09-16T23:54:17.568Z,17.62
2022-09-16T23:56:47.061Z,17.58
2022-09-16T23:59:14.932Z,17.63
